Time;durP1;ratioP1;P1;durP2;ratioP2;P2;SDS_P1;SDS_P2;PMS_P1;PMS_P2;Temp;Humidity;BMP_temperature;BMP_pressure;BME280_temperature;BME280_humidity;BME280_pressure;Samples;Min_cycle;Max_cycle;Signal;HPM_P1;HPM_P2
2023/12/01 00:02:24;;;;;;;28.65;15.98;;;0.60;94.50;;;;;;5096230;28;20066;-81
2023/12/01 00:04:50;;;;;;;29.77;15.85;;;0.50;94.50;;;;;;5091263;28;20072;-79
2023/12/01 00:07:16;;;;;;;30.15;15.50;;;0.50;94.60;;;;;;5090323;27;20070;-80
2023/12/01 00:09:42;;;;;;;29.25;14.52;;;0.50;94.20;;;;;;5134092;27;20121;-80
2023/12/01 00:12:08;;;;;;;25.95;14.02;;;0.50;94.40;;;;;;5117782;27;20552;-80
2023/12/01 00:14:33;;;;;;;30.48;14.70;;;0.50;94.30;;;;;;5133747;27;20177;-80
2023/12/01 00:17:00;;;;;;;26.55;15.20;;;0.50;94.30;;;;;;5127327;27;20372;-82
2023/12/01 00:19:26;;;;;;;33.47;18.50;;;0.50;94.30;;;;;;5096376;28;20050;-81
2023/12/01 00:21:51;;;;;;;32.40;17.70;;;0.50;94.20;;;;;;5122998;27;20038;-82
2023/12/01 00:24:17;;;;;;;29.23;14.77;;;0.60;94.30;;;;;;5082361;28;20039;-79
2023/12/01 00:26:44;;;;;;;28.48;15.40;;;0.60;94.30;;;;;;5098902;27;20092;-83
2023/12/01 00:29:10;;;;;;;27.70;13.35;;;0.60;94.30;;;;;;5116067;27;20042;-79
2023/12/01 00:31:35;;;;;;;28.30;15.65;;;0.60;94.30;;;;;;5099822;27;20035;-82
2023/12/01 00:34:01;;;;;;;30.02;14.95;;;0.60;94.30;;;;;;5115762;28;20039;-81
2023/12/01 00:36:27;;;;;;;32.33;15.77;;;0.60;94.30;;;;;;5116182;27;20473;-82
2023/12/01 00:38:52;;;;;;;27.00;14.85;;;0.60;94.30;;;;;;5086953;28;20050;-81
2023/12/01 00:41:18;;;;;;;26.13;13.93;;;0.60;94.30;;;;;;5073644;28;20054;-81
2023/12/01 00:43:44;;;;;;;24.88;14.57;;;0.60;94.20;;;;;;5115140;28;20043;-80
2023/12/01 00:46:10;;;;;;;29.27;15.18;;;0.60;94.30;;;;;;5116119;28;20495;-81
2023/12/01 00:48:35;;;;;;;26.45;13.60;;;0.60;94.20;;;;;;5099804;28;20159;-82
2023/12/01 00:51:02;;;;;;;28.73;14.70;;;0.60;94.30;;;;;;5098243;28;20145;-82
2023/12/01 00:53:28;;;;;;;26.88;13.77;;;0.60;94.30;;;;;;5098910;28;20039;-82
2023/12/01 00:55:54;;;;;;;28.85;15.05;;;0.60;94.40;;;;;;5118675;28;20059;-82
2023/12/01 00:58:20;;;;;;;31.80;14.95;;;0.60;94.40;;;;;;5099299;28;20092;-81
2023/12/01 01:00:45;;;;;;;27.25;14.23;;;0.60;94.40;;;;;;5083866;28;20545;-81
2023/12/01 01:03:11;;;;;;;27.38;13.93;;;0.70;94.40;;;;;;5115826;28;20035;-82
2023/12/01 01:05:37;;;;;;;29.13;14.57;;;0.60;94.40;;;;;;5095159;28;20035;-81
2023/12/01 01:08:03;;;;;;;33.90;16.60;;;0.60;94.40;;;;;;5078618;28;20042;-82
2023/12/01 01:10:28;;;;;;;28.02;15.50;;;0.70;94.40;;;;;;5112380;28;20039;-81
2023/12/01 01:12:54;;;;;;;31.05;14.43;;;0.70;94.50;;;;;;5085797;28;20035;-81
2023/12/01 01:15:20;;;;;;;28.70;14.77;;;0.70;94.40;;;;;;5073647;28;20031;-82
2023/12/01 01:17:45;;;;;;;34.75;16.00;;;0.60;94.30;;;;;;5132922;28;20035;-80
2023/12/01 01:20:11;;;;;;;30.80;16.27;;;0.60;94.20;;;;;;5132664;28;20031;-81
2023/12/01 01:22:38;;;;;;;36.08;17.20;;;0.50;94.30;;;;;;5115056;28;20039;-83
2023/12/01 01:25:06;;;;;;;33.20;15.90;;;0.50;94.30;;;;;;5115306;28;20071;-82
2023/12/01 01:27:32;;;;;;;32.63;15.80;;;0.50;94.20;;;;;;5132892;28;20506;-81
2023/12/01 01:29:58;;;;;;;30.45;15.88;;;0.50;94.20;;;;;;5116660;28;20043;-81
2023/12/01 01:32:24;;;;;;;33.28;15.65;;;0.50;94.20;;;;;;5116163;28;20130;-82
2023/12/01 01:34:50;;;;;;;31.05;16.02;;;0.50;94.30;;;;;;5133002;28;20031;-81
2023/12/01 01:37:16;;;;;;;32.75;16.23;;;0.60;94.40;;;;;;5116418;28;20043;-80
2023/12/01 01:39:42;;;;;;;26.88;13.02;;;0.50;94.20;;;;;;5116027;28;20043;-82
2023/12/01 01:42:08;;;;;;;27.00;13.23;;;0.40;93.80;;;;;;5132177;28;20039;-82
2023/12/01 01:44:33;;;;;;;27.25;13.65;;;0.40;93.50;;;;;;5098505;28;20035;-82
2023/12/01 01:47:00;;;;;;;25.70;13.45;;;0.40;93.80;;;;;;5108959;28;20031;-81
2023/12/01 01:49:26;;;;;;;25.42;13.32;;;0.30;93.60;;;;;;5116556;28;20093;-82
2023/12/01 01:51:58;;;;;;;31.73;14.15;;;0.30;93.60;;;;;;5100665;27;20036;-81
2023/12/01 01:54:24;;;;;;;27.23;13.23;;;0.30;93.80;;;;;;5118785;27;20077;-82
2023/12/01 01:56:52;;;;;;;26.85;13.63;;;0.40;93.70;;;;;;5121477;27;20036;-82
2023/12/01 01:59:20;;;;;;;27.38;14.38;;;0.40;93.80;;;;;;5090490;27;20446;-82
2023/12/01 02:01:47;;;;;;;37.50;15.77;;;0.30;93.40;;;;;;5098212;28;20049;-81
2023/12/01 02:04:13;;;;;;;30.83;15.43;;;0.40;93.70;;;;;;5112371;27;20043;-81
2023/12/01 02:06:39;;;;;;;33.33;17.27;;;0.40;93.80;;;;;;5127304;27;20392;-82
2023/12/01 02:09:06;;;;;;;29.85;14.48;;;0.30;93.80;;;;;;5117649;27;20036;-81
2023/12/01 02:11:33;;;;;;;27.65;13.93;;;0.40;93.80;;;;;;5090853;28;20490;-81
2023/12/01 02:14:02;;;;;;;28.80;15.75;;;0.40;93.90;;;;;;5115715;27;20050;-82
2023/12/01 02:16:28;;;;;;;29.75;13.77;;;0.40;93.90;;;;;;5104508;27;20126;-82
2023/12/01 02:18:54;;;;;;;32.30;13.68;;;0.40;94.10;;;;;;5102299;27;20078;-82
2023/12/01 02:21:42;;;;;;;30.92;16.75;;;0.40;94.20;;;;;;5102606;27;20031;-81
2023/12/01 02:24:09;;;;;;;31.67;15.68;;;0.40;94.10;;;;;;5138015;27;20042;-81
2023/12/01 02:26:34;;;;;;;32.58;15.70;;;0.30;93.90;;;;;;5099626;28;20036;-82
2023/12/01 02:29:04;;;;;;;31.42;14.77;;;0.30;93.80;;;;;;5108091;27;20519;-82
2023/12/01 02:31:29;;;;;;;36.85;15.93;;;0.20;93.70;;;;;;5103437;27;20119;-82
2023/12/01 02:33:55;;;;;;;32.33;15.35;;;0.20;93.70;;;;;;5097872;28;20071;-81
2023/12/01 02:36:21;;;;;;;31.95;15.32;;;0.20;93.80;;;;;;5091205;27;20035;-81
2023/12/01 02:38:47;;;;;;;29.52;16.30;;;0.10;93.80;;;;;;5109073;27;20490;-82
2023/12/01 02:41:15;;;;;;;31.73;14.95;;;0.20;93.70;;;;;;5119838;27;20054;-80
2023/12/01 02:43:40;;;;;;;31.50;15.82;;;0.10;93.70;;;;;;5118671;27;20391;-81
2023/12/01 02:46:06;;;;;;;31.50;14.85;;;0.20;93.90;;;;;;5101297;28;20039;-82
2023/12/01 02:48:32;;;;;;;34.90;16.42;;;0.20;94.00;;;;;;5099773;27;20075;-81
2023/12/01 02:50:58;;;;;;;31.88;15.85;;;0.20;94.00;;;;;;5084571;27;20085;-83
2023/12/01 02:53:26;;;;;;;32.83;15.90;;;0.20;93.90;;;;;;5100900;27;20547;-81
2023/12/01 02:55:52;;;;;;;35.72;16.58;;;0.10;93.70;;;;;;5117462;27;20035;-81
2023/12/01 02:58:17;;;;;;;33.17;15.82;;;0.10;93.70;;;;;;5095550;28;20051;-82
2023/12/01 03:00:43;;;;;;;31.50;16.40;;;0.10;93.50;;;;;;5080255;28;20127;-81
2023/12/01 03:03:09;;;;;;;35.50;15.15;;;0.00;93.40;;;;;;5097247;28;20042;-82
2023/12/01 03:05:35;;;;;;;29.10;15.63;;;0.00;93.40;;;;;;5094709;27;20151;-81
2023/12/01 03:08:01;;;;;;;36.60;16.80;;;0.00;93.10;;;;;;5116912;27;20668;-83
2023/12/01 03:10:27;;;;;;;31.30;16.48;;;-3276.70;93.00;;;;;;5117298;27;20039;-81
2023/12/01 03:12:52;;;;;;;32.72;16.63;;;-3276.60;93.10;;;;;;5111367;28;20028;-81
2023/12/01 03:15:19;;;;;;;32.25;16.45;;;-3276.60;93.00;;;;;;5108619;27;20035;-81
2023/12/01 03:17:46;;;;;;;32.92;15.30;;;-3276.50;92.90;;;;;;5117236;27;20067;-80
2023/12/01 03:20:12;;;;;;;31.52;16.05;;;-3276.50;92.80;;;;;;5117340;27;20058;-81
2023/12/01 03:22:38;;;;;;;29.27;15.45;;;-3276.50;92.70;;;;;;5117212;27;20036;-82
2023/12/01 03:25:11;;;;;;;35.47;15.77;;;-3276.40;92.70;;;;;;5134438;27;20039;-81
2023/12/01 03:27:42;;;;;;;28.98;15.10;;;-3276.40;92.80;;;;;;5117132;27;20137;-82
2023/12/01 03:30:18;;;;;;;32.17;16.20;;;-3276.30;92.70;;;;;;5118841;27;20081;-81
2023/12/01 03:32:52;;;;;;;28.02;15.52;;;-3276.20;92.70;;;;;;5101886;27;20092;-81
2023/12/01 03:35:22;;;;;;;30.85;17.85;;;-3276.20;92.70;;;;;;5117253;27;20064;-79
2023/12/01 03:37:49;;;;;;;32.53;15.93;;;-3276.10;92.60;;;;;;5134706;27;20074;-80
2023/12/01 03:40:15;;;;;;;31.90;16.38;;;-3276.10;92.60;;;;;;5105536;28;20043;-81
2023/12/01 03:42:46;;;;;;;30.85;15.00;;;-3276.00;92.60;;;;;;5132620;27;20562;-80
2023/12/01 03:45:13;;;;;;;26.60;14.77;;;-3275.90;92.40;;;;;;5110358;28;20046;-80
2023/12/01 03:47:41;;;;;;;28.52;14.38;;;-3275.90;92.60;;;;;;5087295;28;20035;-81
2023/12/01 03:50:11;;;;;;;26.08;13.88;;;-3275.80;92.60;;;;;;5096690;28;20123;-80
2023/12/01 03:52:38;;;;;;;29.42;15.68;;;-3275.80;92.50;;;;;;5114909;27;20043;-81
2023/12/01 03:55:04;;;;;;;29.30;14.88;;;-3275.80;92.60;;;;;;5095365;28;20365;-80
2023/12/01 03:57:30;;;;;;;28.88;14.73;;;-3275.80;92.60;;;;;;5121280;27;20039;-80
2023/12/01 03:59:56;;;;;;;27.88;14.38;;;-3275.70;92.60;;;;;;5098188;27;20035;-79
2023/12/01 04:02:21;;;;;;;24.95;14.07;;;-3275.70;92.50;;;;;;5084318;27;20093;-81
2023/12/01 04:04:49;;;;;;;27.30;14.48;;;-3275.70;92.60;;;;;;5099733;27;20565;-81
2023/12/01 04:07:15;;;;;;;30.10;15.32;;;-3275.60;92.70;;;;;;5127305;27;20096;-80
2023/12/01 04:09:41;;;;;;;27.67;15.60;;;-3275.60;92.70;;;;;;5101597;27;20046;-80
2023/12/01 04:12:07;;;;;;;31.33;15.25;;;-3275.50;92.50;;;;;;5097481;27;20118;-80
2023/12/01 04:14:33;;;;;;;29.83;16.10;;;-3275.50;92.50;;;;;;5100272;27;20456;-79
2023/12/01 04:17:08;;;;;;;27.15;14.82;;;-3275.50;92.70;;;;;;5097531;28;20042;-81
2023/12/01 04:19:35;;;;;;;30.30;15.48;;;-3275.50;92.80;;;;;;5081859;28;20067;-80
2023/12/01 04:22:04;;;;;;;28.50;15.43;;;-3275.40;92.80;;;;;;5062673;27;20032;-79
2023/12/01 04:24:33;;;;;;;29.52;15.13;;;-3275.40;92.90;;;;;;5081257;28;20080;-80
2023/12/01 04:27:03;;;;;;;25.45;13.57;;;-3275.40;92.80;;;;;;5096198;28;20035;-80
2023/12/01 04:29:30;;;;;;;25.23;14.05;;;-3275.40;92.70;;;;;;5096415;28;20043;-79
2023/12/01 04:32:00;;;;;;;27.65;14.98;;;-3275.40;92.60;;;;;;5103925;27;20050;-79
2023/12/01 04:34:26;;;;;;;27.42;14.00;;;-3275.30;92.50;;;;;;5118302;27;20031;-81
2023/12/01 04:36:53;;;;;;;27.83;14.77;;;-3275.30;92.40;;;;;;5116579;27;20431;-81
2023/12/01 04:39:20;;;;;;;23.67;12.82;;;-3275.20;92.40;;;;;;5116686;28;20039;-81
2023/12/01 04:41:47;;;;;;;30.00;15.43;;;-3275.20;92.70;;;;;;5099213;27;20118;-81
2023/12/01 04:44:13;;;;;;;32.60;16.77;;;-3275.20;92.70;;;;;;5098251;28;20039;-80
2023/12/01 04:46:38;;;;;;;31.63;14.95;;;-3275.20;92.80;;;;;;5098918;28;20065;-80
2023/12/01 04:49:08;;;;;;;30.42;15.27;;;-3275.20;92.80;;;;;;5099339;28;20088;-80
2023/12/01 04:51:37;;;;;;;25.25;15.23;;;-3275.20;92.80;;;;;;5100277;28;20471;-80
2023/12/01 04:54:07;;;;;;;28.88;15.00;;;-3275.20;92.80;;;;;;5096214;28;20114;-80
2023/12/01 04:56:33;;;;;;;26.52;14.77;;;-3275.10;92.70;;;;;;5122041;28;20054;-80
2023/12/01 04:59:00;;;;;;;28.65;15.05;;;-3275.10;92.60;;;;;;5099778;28;20406;-82
2023/12/01 05:01:26;;;;;;;26.13;13.88;;;-3275.10;92.50;;;;;;5083630;28;20422;-80
2023/12/01 05:03:52;;;;;;;27.98;13.75;;;-3275.10;92.50;;;;;;5116875;28;20042;-80
2023/12/01 05:06:17;;;;;;;24.65;13.18;;;-3275.10;92.50;;;;;;5116242;28;20491;-82
2023/12/01 05:08:44;;;;;;;25.85;13.77;;;-3275.10;92.40;;;;;;5099269;28;20046;-80
2023/12/01 05:11:10;;;;;;;28.23;14.82;;;-3275.10;92.20;;;;;;5115934;28;20096;-80
2023/12/01 05:13:35;;;;;;;29.10;15.18;;;-3275.00;92.10;;;;;;5115187;28;20034;-81
2023/12/01 05:16:01;;;;;;;26.67;13.40;;;-3275.00;92.10;;;;;;5099104;28;20040;-82
2023/12/01 05:18:27;;;;;;;31.30;15.18;;;-3275.10;92.10;;;;;;5113467;28;20046;-80
2023/12/01 05:20:53;;;;;;;25.88;14.32;;;-3275.00;92.00;;;;;;5063651;28;20047;-79
2023/12/01 05:23:19;;;;;;;27.27;15.35;;;-3275.00;92.20;;;;;;5101271;27;20043;-82
2023/12/01 05:25:46;;;;;;;27.80;14.18;;;-3275.00;92.20;;;;;;5120105;27;20046;-81
2023/12/01 05:28:12;;;;;;;29.15;15.38;;;-3275.00;92.20;;;;;;5117729;27;20449;-82
2023/12/01 05:30:43;;;;;;;28.55;15.45;;;-3275.00;92.20;;;;;;5103868;28;20122;-81
2023/12/01 05:33:09;;;;;;;29.35;15.45;;;-3275.10;92.20;;;;;;5127548;27;20044;-81
2023/12/01 05:35:36;;;;;;;26.08;14.82;;;-3275.10;92.10;;;;;;5102513;27;20039;-82
2023/12/01 05:38:04;;;;;;;28.70;15.60;;;-3275.10;92.00;;;;;;5115416;27;20072;-82
2023/12/01 05:40:34;;;;;;;26.30;14.68;;;-3275.00;92.00;;;;;;5104676;28;20554;-80
2023/12/01 05:43:00;;;;;;;29.00;14.63;;;-3275.00;92.00;;;;;;5099610;28;20039;-80
2023/12/01 05:45:33;;;;;;;29.67;15.32;;;-3275.00;91.80;;;;;;5116501;28;20043;-80
2023/12/01 05:47:59;;;;;;;27.10;15.10;;;-3275.00;91.80;;;;;;5115953;28;20044;-79
2023/12/01 05:50:30;;;;;;;31.80;17.45;;;-3275.00;91.70;;;;;;5104102;28;20094;-81
2023/12/01 05:52:57;;;;;;;32.33;18.02;;;-3274.90;91.70;;;;;;5100120;28;20384;-82
2023/12/01 05:55:33;;;;;;;30.80;15.32;;;-3274.80;91.80;;;;;;5115713;27;20035;-82
2023/12/01 05:58:07;;;;;;;33.30;16.50;;;-3274.80;92.00;;;;;;5118502;27;20099;-80
2023/12/01 06:00:32;;;;;;;31.75;16.77;;;-3274.80;92.00;;;;;;5135797;27;20069;-80
2023/12/01 06:03:01;;;;;;;31.58;15.20;;;-3274.80;92.00;;;;;;5118490;27;20486;-80
2023/12/01 06:05:27;;;;;;;31.70;16.38;;;-3274.70;92.00;;;;;;5136339;27;20086;-81
2023/12/01 06:07:55;;;;;;;33.75;16.08;;;-3274.80;92.40;;;;;;5101706;27;20070;-80
2023/12/01 06:10:22;;;;;;;27.38;16.10;;;-3274.80;92.50;;;;;;5136209;27;20363;-80
2023/12/01 06:12:48;;;;;;;26.33;15.45;;;-3274.80;92.50;;;;;;5101884;27;20081;-82
2023/12/01 06:15:16;;;;;;;26.30;14.70;;;-3274.80;92.50;;;;;;5118683;27;20079;-80
2023/12/01 06:17:44;;;;;;;28.70;15.35;;;-3274.80;92.60;;;;;;5136412;27;20038;-81
2023/12/01 06:20:17;;;;;;;26.95;15.15;;;-3274.70;92.30;;;;;;5118852;27;20035;-79
2023/12/01 06:23:05;;;;;;;30.73;15.95;;;-3274.80;92.40;;;;;;5102772;27;20043;-80
2023/12/01 06:25:38;;;;;;;29.98;15.23;;;-3274.80;92.40;;;;;;5136520;27;20102;-79
2023/12/01 06:28:04;;;;;;;24.77;13.43;;;-3274.70;92.30;;;;;;5140602;27;20055;-78
2023/12/01 06:30:35;;;;;;;28.65;16.05;;;-3274.70;92.20;;;;;;5141561;27;20051;-78
2023/12/01 06:33:02;;;;;;;26.27;14.18;;;-3274.80;92.20;;;;;;5158606;27;20058;-81
2023/12/01 06:35:28;;;;;;;27.55;14.63;;;-3274.80;92.20;;;;;;5144269;27;20099;-80
2023/12/01 06:37:54;;;;;;;25.42;13.30;;;-3274.70;92.20;;;;;;5144140;27;20035;-81
2023/12/01 06:40:20;;;;;;;21.70;12.95;;;-3274.70;92.00;;;;;;5144012;27;20026;-80
2023/12/01 06:42:56;;;;;;;20.05;13.40;;;-3274.60;92.00;;;;;;5119813;27;20066;-81
2023/12/01 06:45:28;;;;;;;17.92;12.25;;;-3274.60;91.90;;;;;;5134880;27;20039;-80
2023/12/01 06:47:54;;;;;;;18.00;10.75;;;-3274.50;91.70;;;;;;5117658;27;20041;-82
2023/12/01 06:50:24;;;;;;;15.07;9.35;;;-3274.40;91.60;;;;;;5135023;27;20364;-78
2023/12/01 06:52:52;;;;;;;15.10;8.10;;;-3274.30;91.50;;;;;;5134770;27;20060;-81
2023/12/01 06:55:18;;;;;;;11.45;6.85;;;-3274.30;91.70;;;;;;5117977;27;20042;-80
2023/12/01 06:57:46;;;;;;;11.98;6.65;;;-3274.30;91.70;;;;;;5117418;27;20042;-82
2023/12/01 07:00:36;;;;;;;13.10;6.68;;;-3274.10;91.50;;;;;;5134614;27;20092;-80
2023/12/01 07:03:05;;;;;;;18.83;11.35;;;-3274.10;91.60;;;;;;5136544;27;20499;-81
2023/12/01 07:05:34;;;;;;;20.83;10.55;;;-3274.10;91.70;;;;;;5117439;27;20081;-81
2023/12/01 07:08:00;;;;;;;20.13;10.18;;;-3274.00;91.70;;;;;;5118680;27;20044;-79
2023/12/01 07:10:27;;;;;;;21.90;11.55;;;-3274.00;91.80;;;;;;5084413;27;20042;-78
2023/12/01 07:12:53;;;;;;;24.42;13.27;;;-3274.10;91.80;;;;;;5134326;27;20035;-80
2023/12/01 07:15:22;;;;;;;21.52;12.60;;;-3274.10;91.90;;;;;;5134268;27;20039;-80
2023/12/01 07:17:50;;;;;;;22.30;11.85;;;-3274.10;91.90;;;;;;5085152;28;20075;-83
2023/12/01 07:20:18;;;;;;;22.17;12.18;;;-3274.10;91.90;;;;;;5080115;28;20050;-80
2023/12/01 07:22:44;;;;;;;21.60;11.95;;;-3274.10;91.80;;;;;;5113814;28;20054;-80
2023/12/01 07:25:11;;;;;;;26.20;13.68;;;-3274.10;91.90;;;;;;5097345;28;20035;-81
2023/12/01 07:27:37;;;;;;;28.33;16.48;;;-3274.10;91.80;;;;;;5082237;28;20039;-81
2023/12/01 07:30:04;;;;;;;28.63;14.48;;;-3274.20;91.80;;;;;;5081459;28;20038;-83
2023/12/01 07:32:30;;;;;;;22.52;12.82;;;-3274.20;91.90;;;;;;5090583;27;20390;-83
2023/12/01 07:34:55;;;;;;;22.88;12.63;;;-3274.10;91.80;;;;;;5117051;27;20119;-79
2023/12/01 07:37:21;;;;;;;24.33;13.05;;;-3274.00;91.80;;;;;;5133953;27;20045;-82
2023/12/01 07:39:47;;;;;;;25.63;12.77;;;-3274.10;91.90;;;;;;5134184;27;20130;-81
2023/12/01 07:42:12;;;;;;;22.80;12.65;;;-3274.10;92.00;;;;;;5116523;27;20517;-81
2023/12/01 07:44:38;;;;;;;22.88;13.15;;;-3274.20;92.00;;;;;;5091775;28;20263;-82
2023/12/01 07:47:07;;;;;;;24.55;12.73;;;-3274.20;92.00;;;;;;5112672;28;20046;-82
2023/12/01 07:49:33;;;;;;;21.48;11.50;;;-3274.20;91.80;;;;;;5125952;27;20077;-81
2023/12/01 07:51:58;;;;;;;23.25;11.55;;;-3274.20;91.80;;;;;;5133427;27;20386;-82
2023/12/01 07:54:24;;;;;;;21.33;11.98;;;-3274.30;91.70;;;;;;5116771;27;20704;-81
2023/12/01 07:56:50;;;;;;;25.80;12.30;;;-3274.30;91.70;;;;;;5133704;27;20046;-81
2023/12/01 07:59:15;;;;;;;21.80;11.68;;;-3274.30;91.70;;;;;;5116700;27;20066;-82
2023/12/01 08:01:41;;;;;;;23.58;12.65;;;-3274.20;91.60;;;;;;5116667;27;20115;-81
2023/12/01 08:04:08;;;;;;;23.17;12.70;;;-3274.20;91.60;;;;;;5099485;27;20495;-83
2023/12/01 08:06:33;;;;;;;23.00;13.02;;;-3274.30;91.70;;;;;;5116909;27;20469;-81
2023/12/01 08:08:59;;;;;;;23.83;13.23;;;-3274.30;91.60;;;;;;5097654;27;20114;-83
2023/12/01 08:11:25;;;;;;;24.23;12.57;;;-3274.30;91.70;;;;;;5099482;27;20372;-81
2023/12/01 08:13:51;;;;;;;23.05;13.10;;;-3274.30;91.70;;;;;;5099692;27;20122;-80
2023/12/01 08:16:17;;;;;;;23.05;13.23;;;-3274.30;91.70;;;;;;5100191;27;20047;-81
2023/12/01 08:18:42;;;;;;;26.02;14.55;;;-3274.40;91.60;;;;;;5092225;28;20028;-81
2023/12/01 08:21:08;;;;;;;28.35;14.90;;;-3274.40;91.70;;;;;;5096793;28;20095;-82
2023/12/01 08:23:34;;;;;;;29.80;16.38;;;-3274.50;91.70;;;;;;5096002;28;20059;-81
2023/12/01 08:26:00;;;;;;;32.47;16.90;;;-3274.50;91.70;;;;;;5112777;28;20046;-82
2023/12/01 08:28:25;;;;;;;28.23;15.43;;;-3274.50;91.70;;;;;;5116244;28;20057;-82
2023/12/01 08:30:54;;;;;;;28.98;15.25;;;-3274.50;91.60;;;;;;5099510;27;20046;-81
2023/12/01 08:33:20;;;;;;;29.15;16.13;;;-3274.50;91.70;;;;;;5083452;28;20074;-81
2023/12/01 08:35:45;;;;;;;28.35;15.27;;;-3274.50;91.80;;;;;;5101674;27;20039;-80
2023/12/01 08:38:11;;;;;;;29.85;15.23;;;-3274.60;91.90;;;;;;5099795;27;20440;-82
2023/12/01 08:40:38;;;;;;;26.60;13.95;;;-3274.60;91.90;;;;;;5118592;27;20073;-79
2023/12/01 08:43:05;;;;;;;27.95;13.68;;;-3274.60;91.90;;;;;;5116998;28;20046;-83
2023/12/01 08:45:31;;;;;;;29.85;14.95;;;-3274.60;92.00;;;;;;5116704;28;20035;-80
2023/12/01 08:47:57;;;;;;;29.35;13.65;;;-3274.70;92.20;;;;;;5116236;28;20035;-80
2023/12/01 08:50:23;;;;;;;27.23;14.23;;;-3274.70;92.10;;;;;;5133296;28;20096;-80
2023/12/01 08:52:48;;;;;;;28.08;13.13;;;-3274.70;92.20;;;;;;5116565;28;20043;-83
2023/12/01 08:55:14;;;;;;;26.67;14.25;;;-3274.70;92.10;;;;;;5100652;27;20038;-81
2023/12/01 08:57:46;;;;;;;27.85;14.65;;;-3274.70;92.20;;;;;;5103489;27;20518;-81
2023/12/01 09:00:14;;;;;;;29.08;15.07;;;-3274.80;92.20;;;;;;5106560;27;20039;-81
2023/12/01 09:02:40;;;;;;;31.83;15.98;;;-3274.80;92.40;;;;;;5120420;27;20057;-81
2023/12/01 09:05:06;;;;;;;33.15;15.13;;;-3274.90;92.40;;;;;;5103681;27;20035;-82
2023/12/01 09:07:34;;;;;;;34.35;18.58;;;-3274.90;92.30;;;;;;5101697;27;20039;-81
2023/12/01 09:10:00;;;;;;;31.27;17.23;;;-3274.90;92.40;;;;;;5101321;27;20122;-80
2023/12/01 09:12:25;;;;;;;33.30;16.27;;;-3275.00;92.50;;;;;;5137599;27;20066;-80
2023/12/01 09:14:52;;;;;;;29.35;15.27;;;-3275.00;92.40;;;;;;5119173;27;20084;-81
2023/12/01 09:17:17;;;;;;;27.92;15.27;;;-3274.90;92.50;;;;;;5103018;27;20451;-81
2023/12/01 09:19:43;;;;;;;31.13;16.52;;;-3274.90;92.40;;;;;;5119587;27;20074;-81
2023/12/01 09:22:09;;;;;;;29.05;15.25;;;-3274.90;92.50;;;;;;5119339;27;20043;-81
2023/12/01 09:24:34;;;;;;;29.00;15.10;;;-3274.90;92.60;;;;;;5139968;27;20118;-82
2023/12/01 09:27:00;;;;;;;31.38;15.35;;;-3275.00;92.70;;;;;;5103341;27;20050;-81
2023/12/01 09:29:26;;;;;;;41.63;17.83;;;-3275.00;92.70;;;;;;5102220;27;20047;-80
2023/12/01 09:31:52;;;;;;;38.42;17.63;;;-3275.00;92.70;;;;;;5104875;27;20079;-81
2023/12/01 09:34:17;;;;;;;33.58;16.27;;;-3275.10;92.70;;;;;;5103465;27;20553;-81
2023/12/01 09:36:43;;;;;;;34.20;17.00;;;-3275.20;92.70;;;;;;5118929;27;20039;-79
2023/12/01 09:39:09;;;;;;;31.70;16.55;;;-3275.30;92.70;;;;;;5138807;27;20062;-81
2023/12/01 09:41:36;;;;;;;36.45;17.73;;;-3275.40;92.70;;;;;;5102201;27;20043;-80
2023/12/01 09:44:03;;;;;;;32.80;15.52;;;-3275.40;92.60;;;;;;5119387;27;20479;-80
2023/12/01 09:46:35;;;;;;;41.63;20.80;;;-3275.40;92.60;;;;;;5101771;27;20038;-79
2023/12/01 09:49:05;;;;;;;36.58;18.95;;;-3275.50;92.60;;;;;;5089039;28;20043;-82
2023/12/01 09:51:36;;;;;;;32.85;17.67;;;-3275.50;92.50;;;;;;5116802;28;20040;-80
2023/12/01 09:54:03;;;;;;;36.50;17.73;;;-3275.60;92.40;;;;;;5119349;27;20048;-81
2023/12/01 09:56:30;;;;;;;32.60;16.15;;;-3275.60;92.50;;;;;;5119404;27;20035;-81
2023/12/01 09:58:56;;;;;;;35.85;17.88;;;-3275.70;92.50;;;;;;5119441;27;20039;-82
2023/12/01 10:01:22;;;;;;;33.53;17.30;;;-3275.80;92.40;;;;;;5102410;27;20390;-83
2023/12/01 10:03:48;;;;;;;33.25;17.60;;;-3275.80;92.30;;;;;;5121133;27;20681;-81
2023/12/01 10:06:13;;;;;;;31.73;17.15;;;-3275.90;92.20;;;;;;5136294;27;20039;-81
2023/12/01 10:08:40;;;;;;;31.10;14.35;;;-3276.00;92.10;;;;;;5101620;27;20122;-82
2023/12/01 10:11:22;;;;;;;32.53;18.83;;;-3276.10;92.30;;;;;;5102003;27;20387;-81
2023/12/01 10:13:52;;;;;;;30.98;15.80;;;-3276.20;92.30;;;;;;5101703;27;20035;-80
2023/12/01 10:16:19;;;;;;;29.55;16.13;;;-3276.30;92.20;;;;;;5136306;27;20066;-82
2023/12/01 10:19:04;;;;;;;29.95;14.95;;;-3276.40;92.20;;;;;;5119890;27;20039;-83
2023/12/01 10:21:49;;;;;;;35.35;17.65;;;-3276.40;92.10;;;;;;5136073;27;20038;-81
2023/12/01 10:24:22;;;;;;;34.70;18.77;;;-3276.50;91.90;;;;;;5119068;27;20043;-82
2023/12/01 10:26:49;;;;;;;32.47;16.65;;;-3276.60;91.90;;;;;;5118876;27;20039;-82
2023/12/01 10:29:29;;;;;;;36.85;21.38;;;-3276.60;91.80;;;;;;5107863;27;20059;-82
2023/12/01 10:31:56;;;;;;;30.35;17.27;;;-3276.60;91.70;;;;;;5122928;27;20042;-82
2023/12/01 10:34:23;;;;;;;32.30;16.25;;;-3276.70;91.70;;;;;;5097644;27;20035;-81
2023/12/01 10:36:48;;;;;;;31.85;17.40;;;-3276.70;91.40;;;;;;5102790;27;20036;-82
2023/12/01 10:39:16;;;;;;;33.08;17.48;;;0.00;91.00;;;;;;5122481;27;20105;-81
2023/12/01 10:41:44;;;;;;;31.48;16.48;;;0.00;90.90;;;;;;5113387;27;20411;-82
2023/12/01 10:44:16;;;;;;;31.60;17.15;;;0.00;91.30;;;;;;5130126;27;20555;-82
2023/12/01 10:46:46;;;;;;;31.20;16.38;;;0.10;91.20;;;;;;5126808;27;20043;-81
2023/12/01 10:49:14;;;;;;;30.63;16.55;;;0.20;91.20;;;;;;5125504;27;20039;-80
2023/12/01 10:51:43;;;;;;;28.55;15.50;;;0.20;91.00;;;;;;5117706;27;20381;-81
2023/12/01 10:54:10;;;;;;;27.80;16.10;;;0.30;91.00;;;;;;5090610;28;20039;-82
2023/12/01 10:56:48;;;;;;;30.45;16.83;;;0.40;90.70;;;;;;5129428;27;20071;-82
2023/12/01 10:59:21;;;;;;;28.80;15.90;;;0.50;90.50;;;;;;5105906;28;20046;-83
2023/12/01 11:01:49;;;;;;;27.27;16.95;;;0.60;90.20;;;;;;5098682;28;20070;-84
2023/12/01 11:04:22;;;;;;;26.25;14.68;;;0.60;90.30;;;;;;5109407;28;20044;-84
2023/12/01 11:07:16;;;;;;;26.33;14.70;;;0.60;89.80;;;;;;5118033;27;20122;-84
2023/12/01 11:09:52;;;;;;;24.15;14.02;;;0.70;89.10;;;;;;5097215;28;20127;-83
2023/12/01 11:13:03;;;;;;;36.20;22.67;;;0.70;88.90;;;;;;5097482;28;20070;-84
2023/12/01 11:15:33;;;;;;;27.08;16.25;;;0.90;88.70;;;;;;5114337;28;20035;-84
2023/12/01 11:17:59;;;;;;;30.67;15.82;;;1.00;88.20;;;;;;5117045;27;20043;-85
2023/12/01 11:20:39;;;;;;;27.67;16.10;;;1.10;88.10;;;;;;5101305;27;20039;-84
2023/12/01 11:23:13;;;;;;;22.98;13.90;;;1.20;88.00;;;;;;5117913;27;20039;-83
2023/12/01 11:25:41;;;;;;;;;;;1.30;87.80;;;;;;5119347;27;20153;-82
2023/12/01 11:28:32;;;;;;;25.98;14.25;;;1.50;88.30;;;;;;5117248;27;19919;-84
2023/12/01 11:31:09;;;;;;;23.80;13.77;;;1.50;89.00;;;;;;5133885;27;20391;-83
2023/12/01 11:33:57;;;;;;;26.00;14.77;;;1.60;88.10;;;;;;5135532;27;20122;-83
2023/12/01 11:36:32;;;;;;;28.23;15.25;;;1.70;87.20;;;;;;5135196;27;20045;-84
2023/12/01 11:39:16;;;;;;;24.40;14.35;;;1.90;86.50;;;;;;5120832;27;20104;-82
2023/12/01 11:41:41;;;;;;;23.20;13.60;;;2.10;86.60;;;;;;5097207;28;20040;-81
2023/12/01 11:44:43;;;;;;;28.48;16.00;;;2.30;86.10;;;;;;5096584;28;20040;-81
2023/12/01 11:47:14;;;;;;;23.08;13.85;;;2.40;85.30;;;;;;5097825;28;20487;-82
2023/12/01 11:49:43;;;;;;;22.75;12.90;;;2.60;84.70;;;;;;5096622;28;20118;-81
2023/12/01 11:52:14;;;;;;;25.25;14.98;;;2.70;86.10;;;;;;5096939;28;20039;-80
2023/12/01 11:54:41;;;;;;;24.35;14.13;;;2.70;84.60;;;;;;5113551;28;20494;-80
2023/12/01 11:57:09;;;;;;;25.63;14.68;;;2.90;85.40;;;;;;5096582;28;20046;-82
2023/12/01 11:59:35;;;;;;;22.88;14.52;;;2.90;84.40;;;;;;5113562;28;20122;-81
2023/12/01 12:02:02;;;;;;;23.27;14.23;;;3.00;85.00;;;;;;5113524;28;20112;-80
2023/12/01 12:04:28;;;;;;;27.90;16.10;;;3.10;83.70;;;;;;5085419;27;20126;-81
2023/12/01 12:06:55;;;;;;;24.45;14.48;;;3.20;84.80;;;;;;5116639;27;20151;-79
2023/12/01 12:09:21;;;;;;;24.95;15.73;;;3.30;84.60;;;;;;5134680;27;20441;-80
2023/12/01 12:11:53;;;;;;;25.73;15.48;;;3.30;83.60;;;;;;5078334;28;20083;-84
2023/12/01 12:14:23;;;;;;;26.48;15.57;;;3.50;83.40;;;;;;5113349;28;20657;-78
2023/12/01 12:16:49;;;;;;;24.02;14.43;;;3.50;85.00;;;;;;5113989;28;20053;-79
2023/12/01 12:19:15;;;;;;;24.88;13.98;;;3.50;83.50;;;;;;5096486;28;20093;-82